sensor_id;sensor_type;location;lat;lon;timestamp;temperature;humidity
51855;DHT22;37895;53.240;6.572;2023-10-31T00:01:35;10.60;99.90
51855;DHT22;37895;53.240;6.572;2023-10-31T00:04:00;10.60;99.90
51855;DHT22;37895;53.240;6.572;2023-10-31T00:06:26;10.50;99.90
51855;DHT22;37895;53.240;6.572;2023-10-31T00:08:52;10.50;99.90
51855;DHT22;37895;53.240;6.572;2023-10-31T00:11:17;10.40;99.90
51855;DHT22;37895;53.240;6.572;2023-10-31T00:13:43;10.40;99.90
51855;DHT22;37895;53.240;6.572;2023-10-31T00:16:09;10.40;99.90
51855;DHT22;37895;53.240;6.572;2023-10-31T00:18:34;10.40;99.90
51855;DHT22;37895;53.240;6.572;2023-10-31T00:21:00;10.30;99.90
51855;DHT22;37895;53.240;6.572;2023-10-31T00:23:25;10.30;99.90
51855;DHT22;37895;53.240;6.572;2023-10-31T00:25:51;10.40;99.90
51855;DHT22;37895;53.240;6.572;2023-10-31T00:28:17;10.40;99.90
51855;DHT22;37895;53.240;6.572;2023-10-31T00:30:42;10.40;99.90
51855;DHT22;37895;53.240;6.572;2023-10-31T00:33:08;10.40;99.90
51855;DHT22;37895;53.240;6.572;2023-10-31T00:35:34;10.40;99.90
51855;DHT22;37895;53.240;6.572;2023-10-31T00:37:59;10.50;99.90
51855;DHT22;37895;53.240;6.572;2023-10-31T00:40:25;10.50;99.90
51855;DHT22;37895;53.240;6.572;2023-10-31T00:42:51;10.50;99.90
51855;DHT22;37895;53.240;6.572;2023-10-31T00:45:16;10.50;99.90
51855;DHT22;37895;53.240;6.572;2023-10-31T00:47:42;10.50;99.90
51855;DHT22;37895;53.240;6.572;2023-10-31T00:50:08;10.40;99.90
51855;DHT22;37895;53.240;6.572;2023-10-31T00:52:34;10.40;99.90
51855;DHT22;37895;53.240;6.572;2023-10-31T00:54:59;10.30;99.90
51855;DHT22;37895;53.240;6.572;2023-10-31T00:57:25;10.30;99.90
51855;DHT22;37895;53.240;6.572;2023-10-31T00:59:51;10.30;99.90
51855;DHT22;37895;53.240;6.572;2023-10-31T01:02:16;10.40;99.90
51855;DHT22;37895;53.240;6.572;2023-10-31T01:04:42;10.30;99.90
51855;DHT22;37895;53.240;6.572;2023-10-31T01:07:07;10.30;99.90
51855;DHT22;37895;53.240;6.572;2023-10-31T01:09:37;10.30;99.90
51855;DHT22;37895;53.240;6.572;2023-10-31T01:12:03;10.30;99.90
51855;DHT22;37895;53.240;6.572;2023-10-31T01:14:29;10.40;99.90
51855;DHT22;37895;53.240;6.572;2023-10-31T01:16:54;10.40;99.90
51855;DHT22;37895;53.240;6.572;2023-10-31T01:19:20;10.30;99.90
51855;DHT22;37895;53.240;6.572;2023-10-31T01:21:45;10.30;99.90
51855;DHT22;37895;53.240;6.572;2023-10-31T01:24:11;10.20;99.90
51855;DHT22;37895;53.240;6.572;2023-10-31T01:26:37;10.30;99.90
51855;DHT22;37895;53.240;6.572;2023-10-31T01:29:02;10.30;99.90
51855;DHT22;37895;53.240;6.572;2023-10-31T01:31:28;10.30;99.90
51855;DHT22;37895;53.240;6.572;2023-10-31T01:33:53;10.30;99.90
51855;DHT22;37895;53.240;6.572;2023-10-31T01:36:23;10.30;99.90
51855;DHT22;37895;53.240;6.572;2023-10-31T01:38:49;10.30;99.90
51855;DHT22;37895;53.240;6.572;2023-10-31T01:41:15;10.30;99.90
51855;DHT22;37895;53.240;6.572;2023-10-31T01:43:41;10.30;99.90
51855;DHT22;37895;53.240;6.572;2023-10-31T01:46:07;10.30;99.90
51855;DHT22;37895;53.240;6.572;2023-10-31T01:48:34;10.30;99.90
51855;DHT22;37895;53.240;6.572;2023-10-31T01:51:02;10.20;99.90
51855;DHT22;37895;53.240;6.572;2023-10-31T01:53:30;10.20;99.90
51855;DHT22;37895;53.240;6.572;2023-10-31T01:55:59;10.20;99.90
51855;DHT22;37895;53.240;6.572;2023-10-31T01:58:33;10.20;99.90
51855;DHT22;37895;53.240;6.572;2023-10-31T02:00:59;10.20;99.90
51855;DHT22;37895;53.240;6.572;2023-10-31T02:03:29;10.20;99.90
51855;DHT22;37895;53.240;6.572;2023-10-31T02:05:55;10.20;99.90
51855;DHT22;37895;53.240;6.572;2023-10-31T02:08:21;10.20;99.90
51855;DHT22;37895;53.240;6.572;2023-10-31T02:10:47;10.10;99.90
51855;DHT22;37895;53.240;6.572;2023-10-31T02:13:13;10.10;99.90
51855;DHT22;37895;53.240;6.572;2023-10-31T02:15:39;10.10;99.90
51855;DHT22;37895;53.240;6.572;2023-10-31T02:18:05;10.10;99.90
51855;DHT22;37895;53.240;6.572;2023-10-31T02:20:31;10.10;99.90
51855;DHT22;37895;53.240;6.572;2023-10-31T02:22:56;10.10;99.90
51855;DHT22;37895;53.240;6.572;2023-10-31T02:25:22;10.10;99.90
51855;DHT22;37895;53.240;6.572;2023-10-31T02:27:48;10.10;99.90
51855;DHT22;37895;53.240;6.572;2023-10-31T02:30:14;10.10;99.90
51855;DHT22;37895;53.240;6.572;2023-10-31T02:32:40;10.50;99.90
51855;DHT22;37895;53.240;6.572;2023-10-31T02:35:07;10.10;99.90
51855;DHT22;37895;53.240;6.572;2023-10-31T02:37:33;10.10;99.90
51855;DHT22;37895;53.240;6.572;2023-10-31T02:39:59;10.40;99.90
51855;DHT22;37895;53.240;6.572;2023-10-31T02:42:26;10.10;99.90
51855;DHT22;37895;53.240;6.572;2023-10-31T02:44:52;10.10;99.90
51855;DHT22;37895;53.240;6.572;2023-10-31T02:47:18;10.10;99.90
51855;DHT22;37895;53.240;6.572;2023-10-31T02:49:44;10.10;99.90
51855;DHT22;37895;53.240;6.572;2023-10-31T02:52:10;10.10;99.90
51855;DHT22;37895;53.240;6.572;2023-10-31T02:54:35;10.10;99.90
51855;DHT22;37895;53.240;6.572;2023-10-31T02:57:02;10.10;99.90
51855;DHT22;37895;53.240;6.572;2023-10-31T02:59:27;10.10;99.90
51855;DHT22;37895;53.240;6.572;2023-10-31T03:01:53;10.10;99.90
51855;DHT22;37895;53.240;6.572;2023-10-31T03:04:19;10.10;99.90
51855;DHT22;37895;53.240;6.572;2023-10-31T03:06:45;10.10;99.90
51855;DHT22;37895;53.240;6.572;2023-10-31T03:09:10;10.10;99.90
51855;DHT22;37895;53.240;6.572;2023-10-31T03:11:36;10.20;99.90
51855;DHT22;37895;53.240;6.572;2023-10-31T03:14:01;10.20;99.90
51855;DHT22;37895;53.240;6.572;2023-10-31T03:16:27;10.20;99.90
51855;DHT22;37895;53.240;6.572;2023-10-31T03:18:53;10.20;99.90
51855;DHT22;37895;53.240;6.572;2023-10-31T03:21:18;10.20;99.90
51855;DHT22;37895;53.240;6.572;2023-10-31T03:23:48;10.20;99.90
51855;DHT22;37895;53.240;6.572;2023-10-31T03:26:17;10.20;99.90
51855;DHT22;37895;53.240;6.572;2023-10-31T03:28:43;10.00;99.90
51855;DHT22;37895;53.240;6.572;2023-10-31T03:31:10;10.20;99.90
51855;DHT22;37895;53.240;6.572;2023-10-31T03:33:36;10.10;99.90
51855;DHT22;37895;53.240;6.572;2023-10-31T03:36:02;10.20;99.90
51855;DHT22;37895;53.240;6.572;2023-10-31T03:38:27;10.20;99.90
51855;DHT22;37895;53.240;6.572;2023-10-31T03:40:53;10.20;99.90
51855;DHT22;37895;53.240;6.572;2023-10-31T03:43:19;10.20;99.90
51855;DHT22;37895;53.240;6.572;2023-10-31T03:45:46;10.20;99.90
51855;DHT22;37895;53.240;6.572;2023-10-31T03:48:12;10.20;99.90
51855;DHT22;37895;53.240;6.572;2023-10-31T03:50:38;10.20;99.90
51855;DHT22;37895;53.240;6.572;2023-10-31T03:53:04;10.20;99.90
51855;DHT22;37895;53.240;6.572;2023-10-31T03:55:29;10.20;99.90
51855;DHT22;37895;53.240;6.572;2023-10-31T03:57:55;10.30;99.90
51855;DHT22;37895;53.240;6.572;2023-10-31T04:00:21;10.30;99.90
51855;DHT22;37895;53.240;6.572;2023-10-31T04:02:47;10.30;99.90
51855;DHT22;37895;53.240;6.572;2023-10-31T04:05:12;10.30;99.90
51855;DHT22;37895;53.240;6.572;2023-10-31T04:07:38;10.30;99.90
51855;DHT22;37895;53.240;6.572;2023-10-31T04:10:04;10.30;99.90
51855;DHT22;37895;53.240;6.572;2023-10-31T04:12:30;10.30;99.90
51855;DHT22;37895;53.240;6.572;2023-10-31T04:14:56;10.30;99.90
51855;DHT22;37895;53.240;6.572;2023-10-31T04:17:22;10.30;99.90
51855;DHT22;37895;53.240;6.572;2023-10-31T04:19:47;10.30;99.90
51855;DHT22;37895;53.240;6.572;2023-10-31T04:22:13;10.40;99.90
51855;DHT22;37895;53.240;6.572;2023-10-31T04:24:39;10.40;99.90
51855;DHT22;37895;53.240;6.572;2023-10-31T04:27:05;10.40;99.90
51855;DHT22;37895;53.240;6.572;2023-10-31T04:29:30;10.40;99.90
51855;DHT22;37895;53.240;6.572;2023-10-31T04:31:56;10.40;99.90
51855;DHT22;37895;53.240;6.572;2023-10-31T04:34:21;10.40;99.90
51855;DHT22;37895;53.240;6.572;2023-10-31T04:36:47;10.40;99.90
51855;DHT22;37895;53.240;6.572;2023-10-31T04:39:12;10.40;99.90
51855;DHT22;37895;53.240;6.572;2023-10-31T04:41:38;10.40;99.90
51855;DHT22;37895;53.240;6.572;2023-10-31T04:44:04;10.40;99.90
51855;DHT22;37895;53.240;6.572;2023-10-31T04:46:30;10.40;99.90
51855;DHT22;37895;53.240;6.572;2023-10-31T04:48:55;10.40;99.90
51855;DHT22;37895;53.240;6.572;2023-10-31T04:51:21;10.40;99.90
51855;DHT22;37895;53.240;6.572;2023-10-31T04:53:46;10.40;99.90
51855;DHT22;37895;53.240;6.572;2023-10-31T04:56:14;10.40;99.90
51855;DHT22;37895;53.240;6.572;2023-10-31T04:58:44;10.40;99.90
51855;DHT22;37895;53.240;6.572;2023-10-31T05:01:13;10.40;99.90
51855;DHT22;37895;53.240;6.572;2023-10-31T05:03:39;10.40;99.90
51855;DHT22;37895;53.240;6.572;2023-10-31T05:06:05;10.40;99.90
51855;DHT22;37895;53.240;6.572;2023-10-31T05:08:31;10.40;99.90
51855;DHT22;37895;53.240;6.572;2023-10-31T05:10:57;10.40;99.90
51855;DHT22;37895;53.240;6.572;2023-10-31T05:13:23;10.40;99.90
51855;DHT22;37895;53.240;6.572;2023-10-31T05:15:49;10.40;99.90
51855;DHT22;37895;53.240;6.572;2023-10-31T05:18:15;10.40;99.90
51855;DHT22;37895;53.240;6.572;2023-10-31T05:20:41;10.40;99.90
51855;DHT22;37895;53.240;6.572;2023-10-31T05:23:06;10.40;99.90
51855;DHT22;37895;53.240;6.572;2023-10-31T05:25:32;10.40;99.90
51855;DHT22;37895;53.240;6.572;2023-10-31T05:27:58;10.40;99.90
51855;DHT22;37895;53.240;6.572;2023-10-31T05:30:24;10.40;99.90
51855;DHT22;37895;53.240;6.572;2023-10-31T05:32:51;10.40;99.90
51855;DHT22;37895;53.240;6.572;2023-10-31T05:35:16;10.50;99.90
51855;DHT22;37895;53.240;6.572;2023-10-31T05:37:42;10.50;99.90
51855;DHT22;37895;53.240;6.572;2023-10-31T05:40:08;10.50;99.90
51855;DHT22;37895;53.240;6.572;2023-10-31T05:42:34;10.50;99.90
51855;DHT22;37895;53.240;6.572;2023-10-31T05:45:00;10.60;99.90
51855;DHT22;37895;53.240;6.572;2023-10-31T05:47:25;10.50;99.90
51855;DHT22;37895;53.240;6.572;2023-10-31T05:49:51;10.60;99.90
51855;DHT22;37895;53.240;6.572;2023-10-31T05:52:17;10.50;99.90
51855;DHT22;37895;53.240;6.572;2023-10-31T05:54:43;10.50;99.90
51855;DHT22;37895;53.240;6.572;2023-10-31T05:57:08;10.40;99.90
51855;DHT22;37895;53.240;6.572;2023-10-31T05:59:34;10.50;99.90
51855;DHT22;37895;53.240;6.572;2023-10-31T06:01:59;10.50;99.90
51855;DHT22;37895;53.240;6.572;2023-10-31T06:04:25;10.40;99.90
51855;DHT22;37895;53.240;6.572;2023-10-31T06:06:51;10.50;99.90
51855;DHT22;37895;53.240;6.572;2023-10-31T06:09:17;10.40;99.90
51855;DHT22;37895;53.240;6.572;2023-10-31T06:11:43;10.50;99.90
51855;DHT22;37895;53.240;6.572;2023-10-31T06:14:09;10.40;99.90
51855;DHT22;37895;53.240;6.572;2023-10-31T06:16:54;10.00;99.90
51855;DHT22;37895;53.240;6.572;2023-10-31T06:19:24;10.40;99.90
51855;DHT22;37895;53.240;6.572;2023-10-31T06:21:50;10.40;99.90
51855;DHT22;37895;53.240;6.572;2023-10-31T06:24:15;10.40;99.90
51855;DHT22;37895;53.240;6.572;2023-10-31T06:26:41;10.40;99.90
51855;DHT22;37895;53.240;6.572;2023-10-31T06:29:07;10.50;99.90
51855;DHT22;37895;53.240;6.572;2023-10-31T06:31:33;10.40;99.90
51855;DHT22;37895;53.240;6.572;2023-10-31T06:33:58;10.40;99.90
51855;DHT22;37895;53.240;6.572;2023-10-31T06:36:24;10.40;99.90
51855;DHT22;37895;53.240;6.572;2023-10-31T06:38:49;11.20;99.90
51855;DHT22;37895;53.240;6.572;2023-10-31T06:41:15;10.40;99.90
51855;DHT22;37895;53.240;6.572;2023-10-31T06:43:41;10.40;99.90
51855;DHT22;37895;53.240;6.572;2023-10-31T06:46:06;10.40;99.90
51855;DHT22;37895;53.240;6.572;2023-10-31T06:48:32;10.50;99.90
51855;DHT22;37895;53.240;6.572;2023-10-31T06:50:58;10.50;99.90
51855;DHT22;37895;53.240;6.572;2023-10-31T06:53:23;10.60;99.90
51855;DHT22;37895;53.240;6.572;2023-10-31T06:55:49;10.50;99.90
51855;DHT22;37895;53.240;6.572;2023-10-31T06:58:15;10.60;99.90
51855;DHT22;37895;53.240;6.572;2023-10-31T07:00:40;10.60;99.90
51855;DHT22;37895;53.240;6.572;2023-10-31T07:03:06;10.60;99.90
51855;DHT22;37895;53.240;6.572;2023-10-31T07:05:35;10.60;99.90
51855;DHT22;37895;53.240;6.572;2023-10-31T07:08:01;10.50;99.90
51855;DHT22;37895;53.240;6.572;2023-10-31T07:10:28;10.50;99.90
51855;DHT22;37895;53.240;6.572;2023-10-31T07:12:54;10.50;99.90
51855;DHT22;37895;53.240;6.572;2023-10-31T07:15:19;10.50;99.90
51855;DHT22;37895;53.240;6.572;2023-10-31T07:17:46;10.50;99.90
51855;DHT22;37895;53.240;6.572;2023-10-31T07:20:12;10.50;99.90
51855;DHT22;37895;53.240;6.572;2023-10-31T07:22:38;10.50;99.90
51855;DHT22;37895;53.240;6.572;2023-10-31T07:25:05;10.50;99.90
51855;DHT22;37895;53.240;6.572;2023-10-31T07:27:31;10.50;99.90
51855;DHT22;37895;53.240;6.572;2023-10-31T07:29:57;10.70;99.90
51855;DHT22;37895;53.240;6.572;2023-10-31T07:32:23;10.60;99.90
51855;DHT22;37895;53.240;6.572;2023-10-31T07:34:48;10.60;99.90
51855;DHT22;37895;53.240;6.572;2023-10-31T07:37:14;10.60;99.90
51855;DHT22;37895;53.240;6.572;2023-10-31T07:39:39;10.60;99.90
51855;DHT22;37895;53.240;6.572;2023-10-31T07:42:05;10.70;99.90
51855;DHT22;37895;53.240;6.572;2023-10-31T07:44:31;11.00;99.90
51855;DHT22;37895;53.240;6.572;2023-10-31T07:46:57;10.70;99.90
51855;DHT22;37895;53.240;6.572;2023-10-31T07:49:22;10.80;99.90
51855;DHT22;37895;53.240;6.572;2023-10-31T07:51:48;10.80;99.90
51855;DHT22;37895;53.240;6.572;2023-10-31T07:54:14;10.80;99.90
51855;DHT22;37895;53.240;6.572;2023-10-31T07:56:41;10.90;99.90
51855;DHT22;37895;53.240;6.572;2023-10-31T07:59:07;10.70;99.90
51855;DHT22;37895;53.240;6.572;2023-10-31T08:01:36;10.90;99.90
51855;DHT22;37895;53.240;6.572;2023-10-31T08:04:02;11.00;99.90
51855;DHT22;37895;53.240;6.572;2023-10-31T08:06:27;11.00;99.90
51855;DHT22;37895;53.240;6.572;2023-10-31T08:08:53;11.00;99.90
51855;DHT22;37895;53.240;6.572;2023-10-31T08:11:19;11.00;99.90
51855;DHT22;37895;53.240;6.572;2023-10-31T08:13:44;11.10;99.90
51855;DHT22;37895;53.240;6.572;2023-10-31T08:16:10;11.20;99.90
51855;DHT22;37895;53.240;6.572;2023-10-31T08:18:36;11.20;99.90
51855;DHT22;37895;53.240;6.572;2023-10-31T08:21:02;11.30;99.90
51855;DHT22;37895;53.240;6.572;2023-10-31T08:23:29;11.40;99.90
51855;DHT22;37895;53.240;6.572;2023-10-31T08:25:55;11.40;99.90
51855;DHT22;37895;53.240;6.572;2023-10-31T08:28:21;11.40;99.90
51855;DHT22;37895;53.240;6.572;2023-10-31T08:30:46;11.50;99.90
51855;DHT22;37895;53.240;6.572;2023-10-31T08:33:13;11.20;99.90
51855;DHT22;37895;53.240;6.572;2023-10-31T08:35:39;11.60;99.90
51855;DHT22;37895;53.240;6.572;2023-10-31T08:38:04;11.60;99.90
51855;DHT22;37895;53.240;6.572;2023-10-31T08:40:30;11.60;99.90
51855;DHT22;37895;53.240;6.572;2023-10-31T08:42:56;11.70;99.90
51855;DHT22;37895;53.240;6.572;2023-10-31T08:45:22;11.70;99.90
51855;DHT22;37895;53.240;6.572;2023-10-31T08:47:48;11.70;99.90
51855;DHT22;37895;53.240;6.572;2023-10-31T08:50:13;11.70;99.90
51855;DHT22;37895;53.240;6.572;2023-10-31T08:52:39;11.80;99.90
51855;DHT22;37895;53.240;6.572;2023-10-31T08:55:05;11.80;99.90
51855;DHT22;37895;53.240;6.572;2023-10-31T08:57:31;11.80;99.90
51855;DHT22;37895;53.240;6.572;2023-10-31T08:59:59;11.80;99.90
51855;DHT22;37895;53.240;6.572;2023-10-31T09:02:25;11.70;99.90
51855;DHT22;37895;53.240;6.572;2023-10-31T09:04:50;11.60;99.90
51855;DHT22;37895;53.240;6.572;2023-10-31T09:07:16;11.50;99.90
51855;DHT22;37895;53.240;6.572;2023-10-31T09:09:42;11.40;99.90
51855;DHT22;37895;53.240;6.572;2023-10-31T09:12:07;11.10;99.90
51855;DHT22;37895;53.240;6.572;2023-10-31T09:14:33;11.10;99.90
51855;DHT22;37895;53.240;6.572;2023-10-31T09:17:00;11.10;99.90
51855;DHT22;37895;53.240;6.572;2023-10-31T09:19:26;11.00;99.90
51855;DHT22;37895;53.240;6.572;2023-10-31T09:21:52;11.10;99.90
51855;DHT22;37895;53.240;6.572;2023-10-31T09:24:17;11.00;99.90
51855;DHT22;37895;53.240;6.572;2023-10-31T09:26:43;10.90;99.90
51855;DHT22;37895;53.240;6.572;2023-10-31T09:29:10;10.80;99.90
51855;DHT22;37895;53.240;6.572;2023-10-31T09:31:36;10.80;99.90
51855;DHT22;37895;53.240;6.572;2023-10-31T09:34:01;10.80;99.90
51855;DHT22;37895;53.240;6.572;2023-10-31T09:36:31;10.80;99.90
51855;DHT22;37895;53.240;6.572;2023-10-31T09:38:57;10.70;99.90
51855;DHT22;37895;53.240;6.572;2023-10-31T09:41:23;10.80;99.90
51855;DHT22;37895;53.240;6.572;2023-10-31T09:43:49;10.80;99.90
51855;DHT22;37895;53.240;6.572;2023-10-31T09:46:15;10.70;99.90
51855;DHT22;37895;53.240;6.572;2023-10-31T09:48:41;10.70;99.90
51855;DHT22;37895;53.240;6.572;2023-10-31T09:51:07;10.80;99.90
51855;DHT22;37895;53.240;6.572;2023-10-31T09:53:34;10.80;99.90
51855;DHT22;37895;53.240;6.572;2023-10-31T09:56:02;10.80;99.90
51855;DHT22;37895;53.240;6.572;2023-10-31T09:58:28;10.90;99.90
51855;DHT22;37895;53.240;6.572;2023-10-31T10:00:54;11.00;99.90
51855;DHT22;37895;53.240;6.572;2023-10-31T10:03:20;11.20;99.90
51855;DHT22;37895;53.240;6.572;2023-10-31T10:05:46;11.10;99.90
51855;DHT22;37895;53.240;6.572;2023-10-31T10:08:12;11.10;99.90
51855;DHT22;37895;53.240;6.572;2023-10-31T10:10:38;11.10;99.90
51855;DHT22;37895;53.240;6.572;2023-10-31T10:13:03;11.20;99.90
51855;DHT22;37895;53.240;6.572;2023-10-31T10:15:29;11.20;99.90
51855;DHT22;37895;53.240;6.572;2023-10-31T10:17:55;11.40;99.90
51855;DHT22;37895;53.240;6.572;2023-10-31T10:20:21;11.50;99.90
51855;DHT22;37895;53.240;6.572;2023-10-31T10:22:47;11.50;99.90
51855;DHT22;37895;53.240;6.572;2023-10-31T10:25:16;11.50;99.90
51855;DHT22;37895;53.240;6.572;2023-10-31T10:27:44;11.50;99.90
51855;DHT22;37895;53.240;6.572;2023-10-31T10:30:12;11.30;99.90
51855;DHT22;37895;53.240;6.572;2023-10-31T10:32:37;11.30;99.90
51855;DHT22;37895;53.240;6.572;2023-10-31T10:35:03;11.30;99.90
51855;DHT22;37895;53.240;6.572;2023-10-31T10:37:29;11.40;99.90
51855;DHT22;37895;53.240;6.572;2023-10-31T10:39:56;11.40;99.90
51855;DHT22;37895;53.240;6.572;2023-10-31T10:42:54;11.50;99.90
51855;DHT22;37895;53.240;6.572;2023-10-31T10:45:23;11.40;99.90
51855;DHT22;37895;53.240;6.572;2023-10-31T10:47:50;11.50;99.90
51855;DHT22;37895;53.240;6.572;2023-10-31T10:50:19;11.50;99.90
51855;DHT22;37895;53.240;6.572;2023-10-31T10:52:54;11.60;99.90
51855;DHT22;37895;53.240;6.572;2023-10-31T10:55:26;11.60;99.90
51855;DHT22;37895;53.240;6.572;2023-10-31T10:58:00;11.80;99.90
51855;DHT22;37895;53.240;6.572;2023-10-31T11:00:26;11.70;99.90
51855;DHT22;37895;53.240;6.572;2023-10-31T11:02:53;11.90;99.90
51855;DHT22;37895;53.240;6.572;2023-10-31T11:05:19;11.70;99.90
51855;DHT22;37895;53.240;6.572;2023-10-31T11:07:45;11.70;99.90
51855;DHT22;37895;53.240;6.572;2023-10-31T11:10:12;11.80;99.90
51855;DHT22;37895;53.240;6.572;2023-10-31T11:12:38;11.80;99.90
51855;DHT22;37895;53.240;6.572;2023-10-31T11:15:07;11.80;99.90
51855;DHT22;37895;53.240;6.572;2023-10-31T11:17:39;11.90;99.90
51855;DHT22;37895;53.240;6.572;2023-10-31T11:20:07;11.90;99.90
51855;DHT22;37895;53.240;6.572;2023-10-31T11:22:42;11.90;99.90
51855;DHT22;37895;53.240;6.572;2023-10-31T11:25:10;12.00;99.90
51855;DHT22;37895;53.240;6.572;2023-10-31T11:27:36;12.00;99.90
51855;DHT22;37895;53.240;6.572;2023-10-31T11:30:08;12.10;99.90
51855;DHT22;37895;53.240;6.572;2023-10-31T11:32:52;12.00;99.90
51855;DHT22;37895;53.240;6.572;2023-10-31T11:35:17;12.00;99.90
51855;DHT22;37895;53.240;6.572;2023-10-31T11:37:44;11.90;99.90
51855;DHT22;37895;53.240;6.572;2023-10-31T11:42:51;11.70;99.90
51855;DHT22;37895;53.240;6.572;2023-10-31T11:45:40;11.70;99.90
51855;DHT22;37895;53.240;6.572;2023-10-31T11:48:08;11.80;99.90
51855;DHT22;37895;53.240;6.572;2023-10-31T11:50:36;11.80;99.90
51855;DHT22;37895;53.240;6.572;2023-10-31T11:53:15;11.80;99.90
51855;DHT22;37895;53.240;6.572;2023-10-31T11:55:46;11.90;99.90
51855;DHT22;37895;53.240;6.572;2023-10-31T12:00:52;11.80;99.90
51855;DHT22;37895;53.240;6.572;2023-10-31T12:03:20;12.20;99.90
51855;DHT22;37895;53.240;6.572;2023-10-31T12:05:53;12.30;99.90
51855;DHT22;37895;53.240;6.572;2023-10-31T12:08:39;12.30;99.90
51855;DHT22;37895;53.240;6.572;2023-10-31T12:11:12;12.20;99.90
51855;DHT22;37895;53.240;6.572;2023-10-31T12:13:40;12.20;99.90
51855;DHT22;37895;53.240;6.572;2023-10-31T12:16:08;12.20;99.90
51855;DHT22;37895;53.240;6.572;2023-10-31T12:18:35;12.20;99.90
51855;DHT22;37895;53.240;6.572;2023-10-31T12:21:02;12.10;99.90
51855;DHT22;37895;53.240;6.572;2023-10-31T12:23:28;12.10;99.90
51855;DHT22;37895;53.240;6.572;2023-10-31T12:25:54;12.00;99.90
51855;DHT22;37895;53.240;6.572;2023-10-31T12:28:21;11.90;99.90
51855;DHT22;37895;53.240;6.572;2023-10-31T12:30:49;11.90;99.90
51855;DHT22;37895;53.240;6.572;2023-10-31T12:33:15;11.80;99.90
51855;DHT22;37895;53.240;6.572;2023-10-31T12:35:42;11.60;99.90
51855;DHT22;37895;53.240;6.572;2023-10-31T12:38:10;11.50;99.90
51855;DHT22;37895;53.240;6.572;2023-10-31T12:40:36;11.50;99.90
51855;DHT22;37895;53.240;6.572;2023-10-31T12:43:02;11.30;99.90
51855;DHT22;37895;53.240;6.572;2023-10-31T12:45:28;11.20;99.90
51855;DHT22;37895;53.240;6.572;2023-10-31T12:50:27;11.20;99.90
51855;DHT22;37895;53.240;6.572;2023-10-31T12:52:54;11.10;99.90
51855;DHT22;37895;53.240;6.572;2023-10-31T12:55:30;11.10;99.90
51855;DHT22;37895;53.240;6.572;2023-10-31T12:57:57;11.10;99.90
51855;DHT22;37895;53.240;6.572;2023-10-31T13:00:31;11.00;99.90
51855;DHT22;37895;53.240;6.572;2023-10-31T13:03:07;11.10;99.90
51855;DHT22;37895;53.240;6.572;2023-10-31T13:05:33;11.00;99.90
51855;DHT22;37895;53.240;6.572;2023-10-31T13:07:59;11.00;99.90
51855;DHT22;37895;53.240;6.572;2023-10-31T13:10:29;10.90;99.90
51855;DHT22;37895;53.240;6.572;2023-10-31T13:12:55;10.90;99.90
51855;DHT22;37895;53.240;6.572;2023-10-31T13:15:22;10.90;99.90
51855;DHT22;37895;53.240;6.572;2023-10-31T13:17:51;10.90;99.90
51855;DHT22;37895;53.240;6.572;2023-10-31T13:20:19;10.90;99.90
51855;DHT22;37895;53.240;6.572;2023-10-31T13:22:45;11.00;99.90
51855;DHT22;37895;53.240;6.572;2023-10-31T13:25:12;10.90;99.90
51855;DHT22;37895;53.240;6.572;2023-10-31T13:27:43;10.80;99.90
51855;DHT22;37895;53.240;6.572;2023-10-31T13:30:10;10.80;99.90
51855;DHT22;37895;53.240;6.572;2023-10-31T13:32:37;10.80;99.90
51855;DHT22;37895;53.240;6.572;2023-10-31T13:35:03;10.80;99.90
51855;DHT22;37895;53.240;6.572;2023-10-31T13:37:30;10.90;99.90
51855;DHT22;37895;53.240;6.572;2023-10-31T13:39:55;11.00;99.90
51855;DHT22;37895;53.240;6.572;2023-10-31T13:42:21;11.00;99.90
51855;DHT22;37895;53.240;6.572;2023-10-31T13:44:47;11.00;99.90
51855;DHT22;37895;53.240;6.572;2023-10-31T13:47:13;11.00;99.90
51855;DHT22;37895;53.240;6.572;2023-10-31T13:49:39;11.00;99.90
51855;DHT22;37895;53.240;6.572;2023-10-31T13:52:06;11.10;99.90
51855;DHT22;37895;53.240;6.572;2023-10-31T13:54:33;11.00;99.90
51855;DHT22;37895;53.240;6.572;2023-10-31T13:57:29;11.10;99.90
51855;DHT22;37895;53.240;6.572;2023-10-31T13:59:55;11.20;99.90
51855;DHT22;37895;53.240;6.572;2023-10-31T14:02:21;11.20;99.90
51855;DHT22;37895;53.240;6.572;2023-10-31T14:04:47;11.30;99.90
51855;DHT22;37895;53.240;6.572;2023-10-31T14:07:21;11.30;99.90
51855;DHT22;37895;53.240;6.572;2023-10-31T14:09:49;11.30;99.90
51855;DHT22;37895;53.240;6.572;2023-10-31T14:12:15;11.40;99.90
51855;DHT22;37895;53.240;6.572;2023-10-31T14:14:41;11.40;99.90
51855;DHT22;37895;53.240;6.572;2023-10-31T14:17:07;11.40;99.90
51855;DHT22;37895;53.240;6.572;2023-10-31T14:19:33;11.30;99.90
51855;DHT22;37895;53.240;6.572;2023-10-31T14:21:59;11.30;99.90
51855;DHT22;37895;53.240;6.572;2023-10-31T14:24:33;11.40;99.90
51855;DHT22;37895;53.240;6.572;2023-10-31T14:27:01;11.40;99.90
51855;DHT22;37895;53.240;6.572;2023-10-31T14:29:27;11.40;99.90
51855;DHT22;37895;53.240;6.572;2023-10-31T14:31:54;11.50;99.90
51855;DHT22;37895;53.240;6.572;2023-10-31T14:34:23;11.40;99.90
51855;DHT22;37895;53.240;6.572;2023-10-31T14:36:49;11.50;99.90
51855;DHT22;37895;53.240;6.572;2023-10-31T14:39:15;11.50;99.90
51855;DHT22;37895;53.240;6.572;2023-10-31T14:41:41;11.40;99.90
51855;DHT22;37895;53.240;6.572;2023-10-31T14:44:07;11.60;99.90
51855;DHT22;37895;53.240;6.572;2023-10-31T14:46:34;11.40;99.90
51855;DHT22;37895;53.240;6.572;2023-10-31T14:48:59;11.30;99.90
51855;DHT22;37895;53.240;6.572;2023-10-31T14:51:27;11.30;99.90
51855;DHT22;37895;53.240;6.572;2023-10-31T14:53:53;11.30;99.90
51855;DHT22;37895;53.240;6.572;2023-10-31T14:56:19;11.20;99.90
51855;DHT22;37895;53.240;6.572;2023-10-31T14:58:45;11.20;99.90
51855;DHT22;37895;53.240;6.572;2023-10-31T15:01:10;11.20;99.90
51855;DHT22;37895;53.240;6.572;2023-10-31T15:03:36;11.20;99.90
51855;DHT22;37895;53.240;6.572;2023-10-31T15:06:02;11.10;99.90
51855;DHT22;37895;53.240;6.572;2023-10-31T15:08:28;11.10;99.90
51855;DHT22;37895;53.240;6.572;2023-10-31T15:10:53;11.00;99.90
51855;DHT22;37895;53.240;6.572;2023-10-31T15:13:20;11.10;99.90
51855;DHT22;37895;53.240;6.572;2023-10-31T15:15:46;11.10;99.90
51855;DHT22;37895;53.240;6.572;2023-10-31T15:18:12;11.10;99.90
51855;DHT22;37895;53.240;6.572;2023-10-31T15:20:37;11.10;99.90
51855;DHT22;37895;53.240;6.572;2023-10-31T15:23:03;11.00;99.90
51855;DHT22;37895;53.240;6.572;2023-10-31T15:25:29;11.00;99.90
51855;DHT22;37895;53.240;6.572;2023-10-31T15:27:54;11.00;99.90
51855;DHT22;37895;53.240;6.572;2023-10-31T15:30:20;11.00;99.90
51855;DHT22;37895;53.240;6.572;2023-10-31T15:32:46;11.00;99.90
51855;DHT22;37895;53.240;6.572;2023-10-31T15:35:12;10.90;99.90